Natchez Express — WDF9419 — position and weather

sailwx.info

Track history (hours):
 
Tides and Currents Weather Stations Pressure Air Temp Water Temp Dewpoint Dewpoint Depression Visibility Wind Speed Wind Dir Waves Ship Positions

Natchez Express

Owner: Genesis Marine, LLC, Houston, TX. More information available from US FCC via Universal Licensing System and Coast Guard Vessel Documentation Center.

Last reported at 2018-May-20 21:30 UTC. Time now 2018-May-20 21:50 UTC.
Position N 29°10' W 095°07'.

Length 26 m; draft 2 m.

Type: Ship (hazmat cat D). MMSI: 367504960.

Date/timePositionNaut miles runAvg speedWind from/ knotsBaromVisibWave heightAir tempDewpointWater temp
2018-May-20 21:30N 29°10' W 095°07'2 3.2
2018-May-20 21:00N 29°11' W 095°05'3 5.6
2018-May-20 20:30N 29°13' W 095°02'3 5.3
2018-May-20 20:00N 29°15' W 095°01'3 5.8
2018-May-20 19:30N 29°17' W 094°58'3 6.1
2018-May-20 19:00N 29°17' W 094°55'3 5.6
2018-May-20 18:30N 29°19' W 094°52'3 5.9
2018-May-20 18:00N 29°21' W 094°49'3 5.0
2018-May-20 17:21N 29°23' W 094°47'22 4.5
2018-May-20 12:24N 29°34' W 094°25'3 4.1
2018-May-20 11:41N 29°36' W 094°22'1 5.3
2018-May-20 11:29N 29°37' W 094°21'3 5.2
2018-May-20 10:58N 29°38' W 094°19'3 5.2
2018-May-20 10:26N 29°39' W 094°16'2 5.1
2018-May-20 09:59N 29°40' W 094°13'2 5.2
2018-May-20 09:30N 29°41' W 094°11'2 4.9
2018-May-20 09:00N 29°42' W 094°08'3 5.1
2018-May-20 08:30N 29°44' W 094°06'3 5.1
2018-May-20 08:00N 29°45' W 094°04'3 5.0
2018-May-20 07:30N 29°47' W 094°01'2 4.6
2018-May-20 07:00N 29°49' W 093°60'1 2.9
2018-May-20 06:30N 29°49' W 093°58'0 0.1
2018-May-20 06:00N 29°49' W 093°58'0 0.0
2018-May-20 05:30N 29°49' W 093°58'0 0.0
2018-May-20 05:00N 29°49' W 093°58'0 0.0
2018-May-20 04:30N 29°49' W 093°58'0 0.0
2018-May-20 04:00N 29°49' W 093°58'1 1.2
2018-May-20 03:30N 29°50' W 093°58'3 6.9
2018-May-20 03:00N 29°53' W 093°56'4 7.3
2018-May-20 02:30N 29°55' W 093°53'3 6.6
2018-May-20 02:00N 29°58' W 093°51'3 5.8
2018-May-20 01:30N 29°59' W 093°48'3 6.0
2018-May-20 01:00N 30°01' W 093°45'3 5.7
2018-May-20 00:30N 30°03' W 093°43'3 5.4
2018-May-19 23:54N 30°04' W 093°39'2 5.2
2018-May-19 23:30N 30°04' W 093°37'3 5.2
2018-May-19 23:00N 30°04' W 093°34'3 4.9
2018-May-19 22:28N 30°04' W 093°31'2 4.9
2018-May-19 22:00N 30°04' W 093°28'2 5.0
2018-May-19 21:30N 30°04' W 093°25'3 5.1
2018-May-19 21:00N 30°04' W 093°22'2 3.7
2018-May-19 20:30N 30°04' W 093°21'2 3.2
2018-May-19 20:00N 30°06' W 093°20'2 3.1
2018-May-19 19:30N 30°07' W 093°20'2 4.2
2018-May-19 19:00N 30°09' W 093°20'2 3.7
2018-May-19 18:30N 30°11' W 093°19'0 0.2
2018-May-19 18:00N 30°11' W 093°19'0 0.0
2018-May-19 17:30N 30°11' W 093°19'0 0.0
2018-May-19 17:00N 30°11' W 093°19'0 0.0
2018-May-19 16:29N 30°11' W 093°19'0 0.0
2018-May-19 15:58N 30°11' W 093°19'0 0.0
2018-May-19 15:28N 30°11' W 093°19'0 0.0
2018-May-19 15:00N 30°11' W 093°19'0 0.0
2018-May-19 14:30N 30°11' W 093°19'0 0.0
2018-May-19 14:00N 30°11' W 093°19'0 0.0
2018-May-19 13:30N 30°11' W 093°19'0 0.0
2018-May-19 12:59N 30°11' W 093°19'0 0.0
2018-May-19 12:30N 30°11' W 093°19'0 0.0
2018-May-19 12:00N 30°11' W 093°19'0 0.0
2018-May-19 11:30N 30°11' W 093°19'0 0.0
2018-May-19 11:00N 30°11' W 093°19'0 0.0
2018-May-19 10:30N 30°11' W 093°19'0 0.0
2018-May-19 10:00N 30°11' W 093°19'0 0.0
2018-May-19 09:30N 30°11' W 093°19'0 0.0
2018-May-19 09:00N 30°11' W 093°19'0 0.0
2018-May-19 08:30N 30°11' W 093°19'0 0.0
2018-May-19 08:00N 30°11' W 093°19'0 0.0
2018-May-19 07:30N 30°11' W 093°19'0 0.0
2018-May-19 07:00N 30°11' W 093°19'0 0.0
2018-May-19 06:30N 30°11' W 093°19'0 0.0
2018-May-19 06:00N 30°11' W 093°19'0 0.0
2018-May-19 05:30N 30°11' W 093°19'0 0.0
2018-May-19 04:59N 30°11' W 093°19'0 0.0
2018-May-19 04:29N 30°11' W 093°19'0 0.0
2018-May-19 04:00N 30°11' W 093°19'0 0.0
2018-May-19 03:30N 30°11' W 093°19'0 0.0
2018-May-19 02:59N 30°11' W 093°19'0 0.0
2018-May-19 02:30N 30°11' W 093°19'0 0.0
2018-May-19 02:00N 30°11' W 093°19'0 0.0
2018-May-19 01:30N 30°11' W 093°19'0 0.0
2018-May-19 01:00N 30°11' W 093°19'0 0.0
2018-May-19 00:30N 30°11' W 093°19'0 0.0
2018-May-19 00:00N 30°11' W 093°19'0 0.0
2018-May-18 23:30N 30°11' W 093°19'0 0.0
2018-May-18 22:57N 30°11' W 093°19'0 0.0
2018-May-18 22:30N 30°11' W 093°19'0 0.0
2018-May-18 22:00N 30°11' W 093°19'0 0.0
2018-May-18 21:30N 30°11' W 093°19'0 0.0
2018-May-18 20:59N 30°11' W 093°19'0 0.0
2018-May-18 20:30N 30°11' W 093°19'0 0.0
2018-May-18 20:00N 30°11' W 093°19'0 0.0
2018-May-18 19:30N 30°11' W 093°19'0 0.0
2018-May-18 19:00N 30°11' W 093°19'0 0.0
2018-May-18 18:30N 30°11' W 093°19'0 0.5
2018-May-18 18:00N 30°11' W 093°19'0 0.4
2018-May-18 17:30N 30°11' W 093°19'0 0.1
2018-May-18 17:00N 30°11' W 093°19'0 0.0
2018-May-18 16:30N 30°11' W 093°19'0 0.0
2018-May-18 16:00N 30°11' W 093°19'0 0.0
2018-May-18 15:30N 30°11' W 093°19'0 0.0
2018-May-18 15:00N 30°11' W 093°19'0 0.0
2018-May-18 14:30N 30°11' W 093°19'0 0.0
2018-May-18 14:00N 30°11' W 093°19'0 0.0
2018-May-18 13:30N 30°11' W 093°19'0 0.0
2018-May-18 13:00N 30°11' W 093°19'0 0.0
2018-May-18 12:30N 30°11' W 093°19'0 0.0
2018-May-18 12:00N 30°11' W 093°19'0 0.0
2018-May-18 11:30N 30°11' W 093°19'0 0.0
2018-May-18 11:00N 30°11' W 093°19'0 0.0
2018-May-18 10:30N 30°11' W 093°19'0 0.0
2018-May-18 10:00N 30°11' W 093°19'0 0.0
2018-May-18 09:30N 30°11' W 093°19'0 0.0
2018-May-18 09:00N 30°11' W 093°19'0 0.0
2018-May-18 08:30N 30°11' W 093°19'0 0.0
2018-May-18 08:00N 30°11' W 093°19'0 0.0
2018-May-18 07:30N 30°11' W 093°19'0 0.0
2018-May-18 07:00N 30°11' W 093°19'0 0.0
2018-May-18 06:30N 30°11' W 093°19'0 0.0
2018-May-18 06:00N 30°11' W 093°19'0 0.0
2018-May-18 05:30N 30°11' W 093°19'0 0.0
2018-May-18 05:00N 30°11' W 093°19'0 0.0
2018-May-18 04:30N 30°11' W 093°19'0 0.6
2018-May-18 04:00N 30°11' W 093°19'2 4.8
2018-May-18 03:30N 30°09' W 093°20'3 5.1
2018-May-18 03:00N 30°06' W 093°20'2 3.9
2018-May-18 02:30N 30°04' W 093°21'0 0.1
2018-May-18 02:00N 30°04' W 093°21'0 0.1
2018-May-18 01:30N 30°04' W 093°20'0 0.0
2018-May-18 01:00N 30°04' W 093°21'0 0.0
2018-May-18 00:29N 30°04' W 093°20'0 0.0
2018-May-18 00:00N 30°04' W 093°20'0 0.0
2018-May-17 23:30N 30°04' W 093°20'0 0.0
2018-May-17 23:00N 30°04' W 093°20'0 0.7
2018-May-17 22:30N 30°05' W 093°20'2 4.1
2018-May-17 22:00N 30°06' W 093°19'0 0.1
2018-May-17 21:30N 30°06' W 093°19'0 0.0
2018-May-17 21:00N 30°06' W 093°19'0 0.0
2018-May-17 20:29N 30°06' W 093°19'0 0.0
2018-May-17 20:00N 30°06' W 093°19'0 0.0
2018-May-17 19:30N 30°06' W 093°19'0 0.0
2018-May-17 19:00N 30°06' W 093°19'0 0.0
2018-May-17 18:30N 30°06' W 093°19'0 0.0
2018-May-17 18:00N 30°06' W 093°19'0 0.0
2018-May-17 17:30N 30°06' W 093°19'0 0.0
2018-May-17 17:00N 30°06' W 093°19'0 0.0
2018-May-17 16:30N 30°06' W 093°19'0 0.1
2018-May-17 16:00N 30°06' W 093°19'0 0.0
2018-May-17 15:30N 30°06' W 093°19'1 2.7
2018-May-17 15:00N 30°05' W 093°18'1 2.9
2018-May-17 14:30N 30°04' W 093°16'0 0.6
2018-May-17 14:00N 30°04' W 093°16'0 0.0
2018-May-17 13:30N 30°04' W 093°16'0 0.0
2018-May-17 13:00N 30°04' W 093°16'0 0.0
2018-May-17 12:30N 30°04' W 093°16'2 3.9
2018-May-17 12:00N 30°03' W 093°16'3 5.6
2018-May-17 11:30N 30°01' W 093°14'3 5.7
2018-May-17 11:00N 29°58' W 093°12'2 3.5
2018-May-17 10:30N 29°57' W 093°10'2 3.8
2018-May-17 09:58N 29°56' W 093°08'3 5.4
2018-May-17 09:30N 29°56' W 093°05'3 5.7
2018-May-17 08:59N 29°56' W 093°02'3 5.4
2018-May-17 08:30N 29°56' W 092°59'3 5.2
2018-May-17 08:00N 29°56' W 092°56'3 5.5
2018-May-17 07:30N 29°57' W 092°53'4 5.7
2018-May-17 06:53N 29°58' W 092°49'2 5.6
2018-May-17 06:30N 29°58' W 092°47'3 5.8
2018-May-17 06:00N 29°57' W 092°43'3 5.7
2018-May-17 05:27N 29°56' W 092°40'2 5.1
2018-May-17 04:59N 29°55' W 092°38'3 6.0
2018-May-17 04:26N 29°55' W 092°34'3 6.2
2018-May-17 04:00N 29°54' W 092°31'3 6.1
2018-May-17 03:30N 29°54' W 092°27'4 5.9
2018-May-17 02:51N 29°53' W 092°23'2 5.9
2018-May-17 02:30N 29°51' W 092°22'3 5.7
2018-May-17 01:58N 29°50' W 092°18'79 4.3
2018-May-16 07:32N 29°32' W 090°50'0 5.8
2018-May-16 07:30N 29°32' W 090°50'3 5.5
2018-May-16 07:00N 29°32' W 090°47'2 4.6
2018-May-16 06:30N 29°34' W 090°45'2 3.3
2018-May-16 06:00N 29°35' W 090°43'2 4.5
2018-May-16 05:30N 29°37' W 090°42'2 4.7
2018-May-16 05:00N 29°36' W 090°40'3 5.5
2018-May-16 04:30N 29°35' W 090°37'3 5.6
2018-May-16 03:59N 29°34' W 090°34'30 0.8
2018-May-14 13:17N 30°03' W 090°39'0 0.0
2018-May-14 12:57N 30°03' W 090°39'0 0.0
2018-May-14 12:30N 30°03' W 090°39'0 0.0
2018-May-14 12:00N 30°03' W 090°39'0 0.0
2018-May-14 11:24N 30°03' W 090°39'0 0.0
2018-May-14 10:59N 30°03' W 090°39'0 0.0
2018-May-14 10:23N 30°03' W 090°39'0 0.0
2018-May-14 09:26N 30°03' W 090°39'0 0.0
2018-May-14 08:56N 30°03' W 090°39'0 0.0
2018-May-14 08:30N 30°03' W 090°39'0 0.0
2018-May-14 07:30N 30°03' W 090°39'0 0.0
2018-May-14 06:50N 30°03' W 090°39'0 0.3
2018-May-14 06:11N 30°03' W 090°39'0 1.7
2018-May-14 05:56N 30°03' W 090°38'1 1.2
2018-May-14 05:27N 30°02' W 090°38'  
2018-May-11 09:09N 29°56' W 092°60'0 3.2
2018-May-11 09:00N 29°56' W 093°00'2 4.6
2018-May-11 08:30N 29°56' W 093°03'2 4.0
2018-May-11 08:00N 29°56' W 093°05'2 3.4
2018-May-11 07:30N 29°56' W 093°07'2 4.3
2018-May-11 07:00N 29°56' W 093°10'2 4.3
2018-May-11 06:30N 29°58' W 093°11'2 3.9
2018-May-11 06:00N 29°59' W 093°13'2 3.8
2018-May-11 05:30N 30°01' W 093°14'2 3.5
2018-May-11 05:00N 30°02' W 093°15'1 2.4
2018-May-11 04:30N 30°03' W 093°16'2 4.5
2018-May-11 04:00N 30°05' W 093°17'1 1.6
2018-May-11 03:30N 30°06' W 093°18'0 0.9
2018-May-11 03:00N 30°06' W 093°18'1 1.2
2018-May-11 02:30N 30°06' W 093°19'0 0.0
2018-May-11 02:00N 30°06' W 093°19'0 0.0
2018-May-11 01:30N 30°06' W 093°19'0 0.0
2018-May-11 01:01N 30°06' W 093°19'0 0.3
2018-May-11 00:30N 30°06' W 093°19'0 0.0
2018-May-10 23:56N 30°06' W 093°19'0 0.1
2018-May-10 23:30N 30°06' W 093°19'1 2.8
2018-May-10 23:00N 30°05' W 093°20'0 0.1
2018-May-10 22:30N 30°05' W 093°20'0 0.4
2018-May-10 22:00N 30°05' W 093°20'  
Track history (hours):
 
Tides and Currents Weather Stations Pressure Air Temp Water Temp Dewpoint Dewpoint Depression Visibility Wind Speed Wind Dir Waves Ship Positions

Natchez Express

Owner: Genesis Marine, LLC, Houston, TX. More information available from US FCC via Universal Licensing System and Coast Guard Vessel Documentation Center.

Last reported at 2018-May-20 21:30 UTC. Time now 2018-May-20 21:50 UTC.
Position N 29°10' W 095°07'.

Length 26 m; draft 2 m.

Type: Ship (hazmat cat D). MMSI: 367504960.

Date/timePositionNaut miles runAvg speedWind from/ knotsBaromVisibWave heightAir tempDewpointWater temp
2018-May-20 21:30N 29°10' W 095°07'2 3.2
2018-May-20 21:00N 29°11' W 095°05'3 5.6
2018-May-20 20:30N 29°13' W 095°02'3 5.3
2018-May-20 20:00N 29°15' W 095°01'3 5.8
2018-May-20 19:30N 29°17' W 094°58'3 6.1
2018-May-20 19:00N 29°17' W 094°55'3 5.6
2018-May-20 18:30N 29°19' W 094°52'3 5.9
2018-May-20 18:00N 29°21' W 094°49'3 5.0
2018-May-20 17:21N 29°23' W 094°47'22 4.5
2018-May-20 12:24N 29°34' W 094°25'3 4.1
2018-May-20 11:41N 29°36' W 094°22'1 5.3
2018-May-20 11:29N 29°37' W 094°21'3 5.2
2018-May-20 10:58N 29°38' W 094°19'3 5.2
2018-May-20 10:26N 29°39' W 094°16'2 5.1
2018-May-20 09:59N 29°40' W 094°13'2 5.2
2018-May-20 09:30N 29°41' W 094°11'2 4.9
2018-May-20 09:00N 29°42' W 094°08'3 5.1
2018-May-20 08:30N 29°44' W 094°06'3 5.1
2018-May-20 08:00N 29°45' W 094°04'3 5.0
2018-May-20 07:30N 29°47' W 094°01'2 4.6
2018-May-20 07:00N 29°49' W 093°60'1 2.9
2018-May-20 06:30N 29°49' W 093°58'0 0.1
2018-May-20 06:00N 29°49' W 093°58'0 0.0
2018-May-20 05:30N 29°49' W 093°58'0 0.0
2018-May-20 05:00N 29°49' W 093°58'0 0.0
2018-May-20 04:30N 29°49' W 093°58'0 0.0
2018-May-20 04:00N 29°49' W 093°58'1 1.2
2018-May-20 03:30N 29°50' W 093°58'3 6.9
2018-May-20 03:00N 29°53' W 093°56'4 7.3
2018-May-20 02:30N 29°55' W 093°53'3 6.6
2018-May-20 02:00N 29°58' W 093°51'3 5.8
2018-May-20 01:30N 29°59' W 093°48'3 6.0
2018-May-20 01:00N 30°01' W 093°45'3 5.7
2018-May-20 00:30N 30°03' W 093°43'3 5.4
2018-May-19 23:54N 30°04' W 093°39'2 5.2
2018-May-19 23:30N 30°04' W 093°37'3 5.2
2018-May-19 23:00N 30°04' W 093°34'3 4.9
2018-May-19 22:28N 30°04' W 093°31'2 4.9
2018-May-19 22:00N 30°04' W 093°28'2 5.0
2018-May-19 21:30N 30°04' W 093°25'3 5.1
2018-May-19 21:00N 30°04' W 093°22'2 3.7
2018-May-19 20:30N 30°04' W 093°21'2 3.2
2018-May-19 20:00N 30°06' W 093°20'2 3.1
2018-May-19 19:30N 30°07' W 093°20'2 4.2
2018-May-19 19:00N 30°09' W 093°20'2 3.7
2018-May-19 18:30N 30°11' W 093°19'0 0.2
2018-May-19 18:00N 30°11' W 093°19'0 0.0
2018-May-19 17:30N 30°11' W 093°19'0 0.0
2018-May-19 17:00N 30°11' W 093°19'0 0.0
2018-May-19 16:29N 30°11' W 093°19'0 0.0
2018-May-19 15:58N 30°11' W 093°19'0 0.0
2018-May-19 15:28N 30°11' W 093°19'0 0.0
2018-May-19 15:00N 30°11' W 093°19'0 0.0
2018-May-19 14:30N 30°11' W 093°19'0 0.0
2018-May-19 14:00N 30°11' W 093°19'0 0.0
2018-May-19 13:30N 30°11' W 093°19'0 0.0
2018-May-19 12:59N 30°11' W 093°19'0 0.0
2018-May-19 12:30N 30°11' W 093°19'0 0.0
2018-May-19 12:00N 30°11' W 093°19'0 0.0
2018-May-19 11:30N 30°11' W 093°19'0 0.0
2018-May-19 11:00N 30°11' W 093°19'0 0.0
2018-May-19 10:30N 30°11' W 093°19'0 0.0
2018-May-19 10:00N 30°11' W 093°19'0 0.0
2018-May-19 09:30N 30°11' W 093°19'0 0.0
2018-May-19 09:00N 30°11' W 093°19'0 0.0
2018-May-19 08:30N 30°11' W 093°19'0 0.0
2018-May-19 08:00N 30°11' W 093°19'0 0.0
2018-May-19 07:30N 30°11' W 093°19'0 0.0
2018-May-19 07:00N 30°11' W 093°19'0 0.0
2018-May-19 06:30N 30°11' W 093°19'0 0.0
2018-May-19 06:00N 30°11' W 093°19'0 0.0
2018-May-19 05:30N 30°11' W 093°19'0 0.0
2018-May-19 04:59N 30°11' W 093°19'0 0.0
2018-May-19 04:29N 30°11' W 093°19'0 0.0
2018-May-19 04:00N 30°11' W 093°19'0 0.0
2018-May-19 03:30N 30°11' W 093°19'0 0.0
2018-May-19 02:59N 30°11' W 093°19'0 0.0
2018-May-19 02:30N 30°11' W 093°19'0 0.0
2018-May-19 02:00N 30°11' W 093°19'0 0.0
2018-May-19 01:30N 30°11' W 093°19'0 0.0
2018-May-19 01:00N 30°11' W 093°19'0 0.0
2018-May-19 00:30N 30°11' W 093°19'0 0.0
2018-May-19 00:00N 30°11' W 093°19'0 0.0
2018-May-18 23:30N 30°11' W 093°19'0 0.0
2018-May-18 22:57N 30°11' W 093°19'0 0.0
2018-May-18 22:30N 30°11' W 093°19'0 0.0
2018-May-18 22:00N 30°11' W 093°19'0 0.0
2018-May-18 21:30N 30°11' W 093°19'0 0.0
2018-May-18 20:59N 30°11' W 093°19'0 0.0
2018-May-18 20:30N 30°11' W 093°19'0 0.0
2018-May-18 20:00N 30°11' W 093°19'0 0.0
2018-May-18 19:30N 30°11' W 093°19'0 0.0
2018-May-18 19:00N 30°11' W 093°19'0 0.0
2018-May-18 18:30N 30°11' W 093°19'0 0.5
2018-May-18 18:00N 30°11' W 093°19'0 0.4
2018-May-18 17:30N 30°11' W 093°19'0 0.1
2018-May-18 17:00N 30°11' W 093°19'0 0.0
2018-May-18 16:30N 30°11' W 093°19'0 0.0
2018-May-18 16:00N 30°11' W 093°19'0 0.0
2018-May-18 15:30N 30°11' W 093°19'0 0.0
2018-May-18 15:00N 30°11' W 093°19'0 0.0
2018-May-18 14:30N 30°11' W 093°19'0 0.0
2018-May-18 14:00N 30°11' W 093°19'0 0.0
2018-May-18 13:30N 30°11' W 093°19'0 0.0
2018-May-18 13:00N 30°11' W 093°19'0 0.0
2018-May-18 12:30N 30°11' W 093°19'0 0.0
2018-May-18 12:00N 30°11' W 093°19'0 0.0
2018-May-18 11:30N 30°11' W 093°19'0 0.0
2018-May-18 11:00N 30°11' W 093°19'0 0.0
2018-May-18 10:30N 30°11' W 093°19'0 0.0
2018-May-18 10:00N 30°11' W 093°19'0 0.0
2018-May-18 09:30N 30°11' W 093°19'0 0.0
2018-May-18 09:00N 30°11' W 093°19'0 0.0
2018-May-18 08:30N 30°11' W 093°19'0 0.0
2018-May-18 08:00N 30°11' W 093°19'0 0.0
2018-May-18 07:30N 30°11' W 093°19'0 0.0
2018-May-18 07:00N 30°11' W 093°19'0 0.0
2018-May-18 06:30N 30°11' W 093°19'0 0.0
2018-May-18 06:00N 30°11' W 093°19'0 0.0
2018-May-18 05:30N 30°11' W 093°19'0 0.0
2018-May-18 05:00N 30°11' W 093°19'0 0.0
2018-May-18 04:30N 30°11' W 093°19'0 0.6
2018-May-18 04:00N 30°11' W 093°19'2 4.8
2018-May-18 03:30N 30°09' W 093°20'3 5.1
2018-May-18 03:00N 30°06' W 093°20'2 3.9
2018-May-18 02:30N 30°04' W 093°21'0 0.1
2018-May-18 02:00N 30°04' W 093°21'0 0.1
2018-May-18 01:30N 30°04' W 093°20'0 0.0
2018-May-18 01:00N 30°04' W 093°21'0 0.0
2018-May-18 00:29N 30°04' W 093°20'0 0.0
2018-May-18 00:00N 30°04' W 093°20'0 0.0
2018-May-17 23:30N 30°04' W 093°20'0 0.0
2018-May-17 23:00N 30°04' W 093°20'0 0.7
2018-May-17 22:30N 30°05' W 093°20'2 4.1
2018-May-17 22:00N 30°06' W 093°19'0 0.1
2018-May-17 21:30N 30°06' W 093°19'0 0.0
2018-May-17 21:00N 30°06' W 093°19'0 0.0
2018-May-17 20:29N 30°06' W 093°19'0 0.0
2018-May-17 20:00N 30°06' W 093°19'0 0.0
2018-May-17 19:30N 30°06' W 093°19'0 0.0
2018-May-17 19:00N 30°06' W 093°19'0 0.0
2018-May-17 18:30N 30°06' W 093°19'0 0.0
2018-May-17 18:00N 30°06' W 093°19'0 0.0
2018-May-17 17:30N 30°06' W 093°19'0 0.0
2018-May-17 17:00N 30°06' W 093°19'0 0.0
2018-May-17 16:30N 30°06' W 093°19'0 0.1
2018-May-17 16:00N 30°06' W 093°19'0 0.0
2018-May-17 15:30N 30°06' W 093°19'1 2.7
2018-May-17 15:00N 30°05' W 093°18'1 2.9
2018-May-17 14:30N 30°04' W 093°16'0 0.6
2018-May-17 14:00N 30°04' W 093°16'0 0.0
2018-May-17 13:30N 30°04' W 093°16'0 0.0
2018-May-17 13:00N 30°04' W 093°16'0 0.0
2018-May-17 12:30N 30°04' W 093°16'2 3.9
2018-May-17 12:00N 30°03' W 093°16'3 5.6
2018-May-17 11:30N 30°01' W 093°14'3 5.7
2018-May-17 11:00N 29°58' W 093°12'2 3.5
2018-May-17 10:30N 29°57' W 093°10'2 3.8
2018-May-17 09:58N 29°56' W 093°08'3 5.4
2018-May-17 09:30N 29°56' W 093°05'3 5.7
2018-May-17 08:59N 29°56' W 093°02'3 5.4
2018-May-17 08:30N 29°56' W 092°59'3 5.2
2018-May-17 08:00N 29°56' W 092°56'3 5.5
2018-May-17 07:30N 29°57' W 092°53'4 5.7
2018-May-17 06:53N 29°58' W 092°49'2 5.6
2018-May-17 06:30N 29°58' W 092°47'3 5.8
2018-May-17 06:00N 29°57' W 092°43'3 5.7
2018-May-17 05:27N 29°56' W 092°40'2 5.1
2018-May-17 04:59N 29°55' W 092°38'3 6.0
2018-May-17 04:26N 29°55' W 092°34'3 6.2
2018-May-17 04:00N 29°54' W 092°31'3 6.1
2018-May-17 03:30N 29°54' W 092°27'4 5.9
2018-May-17 02:51N 29°53' W 092°23'2 5.9
2018-May-17 02:30N 29°51' W 092°22'3 5.7
2018-May-17 01:58N 29°50' W 092°18'79 4.3
2018-May-16 07:32N 29°32' W 090°50'0 5.8
2018-May-16 07:30N 29°32' W 090°50'3 5.5
2018-May-16 07:00N 29°32' W 090°47'2 4.6
2018-May-16 06:30N 29°34' W 090°45'2 3.3
2018-May-16 06:00N 29°35' W 090°43'2 4.5
2018-May-16 05:30N 29°37' W 090°42'2 4.7
2018-May-16 05:00N 29°36' W 090°40'3 5.5
2018-May-16 04:30N 29°35' W 090°37'3 5.6
2018-May-16 03:59N 29°34' W 090°34'30 0.8
2018-May-14 13:17N 30°03' W 090°39'0 0.0
2018-May-14 12:57N 30°03' W 090°39'0 0.0
2018-May-14 12:30N 30°03' W 090°39'0 0.0
2018-May-14 12:00N 30°03' W 090°39'0 0.0
2018-May-14 11:24N 30°03' W 090°39'0 0.0
2018-May-14 10:59N 30°03' W 090°39'0 0.0
2018-May-14 10:23N 30°03' W 090°39'0 0.0
2018-May-14 09:26N 30°03' W 090°39'0 0.0
2018-May-14 08:56N 30°03' W 090°39'0 0.0
2018-May-14 08:30N 30°03' W 090°39'0 0.0
2018-May-14 07:30N 30°03' W 090°39'0 0.0
2018-May-14 06:50N 30°03' W 090°39'0 0.3
2018-May-14 06:11N 30°03' W 090°39'0 1.7
2018-May-14 05:56N 30°03' W 090°38'1 1.2
2018-May-14 05:27N 30°02' W 090°38'  
2018-May-11 09:09N 29°56' W 092°60'0 3.2
2018-May-11 09:00N 29°56' W 093°00'2 4.6
2018-May-11 08:30N 29°56' W 093°03'2 4.0
2018-May-11 08:00N 29°56' W 093°05'2 3.4
2018-May-11 07:30N 29°56' W 093°07'2 4.3
2018-May-11 07:00N 29°56' W 093°10'2 4.3
2018-May-11 06:30N 29°58' W 093°11'2 3.9
2018-May-11 06:00N 29°59' W 093°13'2 3.8
2018-May-11 05:30N 30°01' W 093°14'2 3.5
2018-May-11 05:00N 30°02' W 093°15'1 2.4
2018-May-11 04:30N 30°03' W 093°16'2 4.5
2018-May-11 04:00N 30°05' W 093°17'1 1.6
2018-May-11 03:30N 30°06' W 093°18'0 0.9
2018-May-11 03:00N 30°06' W 093°18'1 1.2
2018-May-11 02:30N 30°06' W 093°19'0 0.0
2018-May-11 02:00N 30°06' W 093°19'0 0.0
2018-May-11 01:30N 30°06' W 093°19'0 0.0
2018-May-11 01:01N 30°06' W 093°19'0 0.3
2018-May-11 00:30N 30°06' W 093°19'0 0.0
2018-May-10 23:56N 30°06' W 093°19'0 0.1
2018-May-10 23:30N 30°06' W 093°19'1 2.8
2018-May-10 23:00N 30°05' W 093°20'0 0.1
2018-May-10 22:30N 30°05' W 093°20'0 0.4
2018-May-10 22:00N 30°05' W 093°20'  

Dump ship's entire track history